Lisbon, Portugal
Current Conditions -  °F | °C
As of 7:00 AM on Sunday 26 Oct 2014 (Local Time) from LPPT Reporting Station
Clear Clear  
Wind Chill: 14°   Ceiling: Unl
Heat Index: 14°   Visibility: 6mi
Dew Point: 13°   Wind: 2mph
Humidity: 94%   Direction: 30°NNE
Pressure: 30.09"   Gusts: NA
Location:  38.72°N, 9.14°W
Report Text: LPPT 260600Z 03002KT CAVOK 14/13 Q1019
Loading
Personal Weather Stations






























Interactive Weather Map
Tropical Storm Tracking
New forecast layout! Learn more

10-Day Weather Forecast

Advertisements
Track Severe Weather on mobile